Time;durP1;ratioP1;P1;durP2;ratioP2;P2;SDS_P1;SDS_P2;PMS_P1;PMS_P2;Temp;Humidity;BMP_temperature;BMP_pressure;BME280_temperature;BME280_humidity;BME280_pressure;Samples;Min_cycle;Max_cycle;Signal;HPM_P1;HPM_P2
2023/05/30 00:00:49;;;;;;;6.80;4.60;;;15.90;99.90;;;;;;4160631;28;20041;-61
2023/05/30 00:02:51;;;;;;;5.07;4.55;;;16.00;99.90;;;;;;4160499;28;20034;-74
2023/05/30 00:04:55;;;;;;;6.30;3.92;;;15.90;99.90;;;;;;4161573;28;20858;-72
2023/05/30 00:06:56;;;;;;;7.30;4.20;;;15.90;99.90;;;;;;4159267;28;20440;-76
2023/05/30 00:08:57;;;;;;;6.28;4.20;;;15.90;99.90;;;;;;4161617;28;20115;-73
2023/05/30 00:10:58;;;;;;;8.98;4.82;;;15.90;99.90;;;;;;4163265;28;20079;-76
2023/05/30 00:13:00;;;;;;;7.85;4.82;;;15.80;99.90;;;;;;4164624;28;20532;-74
2023/05/30 00:15:03;;;;;;;7.28;4.32;;;15.70;99.90;;;;;;4162838;28;20108;-76
2023/05/30 00:17:05;;;;;;;8.02;4.60;;;15.70;99.90;;;;;;4164484;28;20064;-77
2023/05/30 00:19:07;;;;;;;9.88;5.68;;;15.60;99.90;;;;;;4162852;28;20152;-68
2023/05/30 00:21:10;;;;;;;16.00;9.20;;;15.50;99.90;;;;;;4145763;28;20084;-78
2023/05/30 00:23:12;;;;;;;10.52;7.05;;;15.40;99.90;;;;;;4163245;28;20111;-73
2023/05/30 00:25:14;;;;;;;10.13;6.95;;;15.40;99.90;;;;;;4163249;28;20045;-78
2023/05/30 00:27:17;;;;;;;7.63;4.93;;;15.40;99.90;;;;;;4163120;28;20045;-75
2023/05/30 00:29:18;;;;;;;9.27;4.95;;;15.30;99.90;;;;;;4163200;28;20041;-77
2023/05/30 00:31:19;;;;;;;8.32;5.10;;;15.30;99.90;;;;;;4163884;28;20080;-74
2023/05/30 00:33:21;;;;;;;7.53;4.95;;;15.30;99.90;;;;;;4162538;28;20411;-78
2023/05/30 00:35:22;;;;;;;8.35;5.05;;;15.20;99.90;;;;;;4164241;28;20022;-77
2023/05/30 00:37:23;;;;;;;7.03;4.85;;;15.20;99.90;;;;;;4162800;28;20478;-69
2023/05/30 00:39:24;;;;;;;10.23;5.40;;;15.20;99.90;;;;;;4162422;28;20080;-60
2023/05/30 00:41:27;;;;;;;10.88;5.38;;;15.10;99.90;;;;;;4163121;28;20115;-59
2023/05/30 00:43:28;;;;;;;6.78;5.32;;;15.10;99.90;;;;;;4164204;28;20025;-76
2023/05/30 00:45:29;;;;;;;7.90;5.22;;;15.10;99.90;;;;;;4163172;28;20030;-75
2023/05/30 00:47:31;;;;;;;9.45;5.32;;;15.00;99.90;;;;;;4163590;28;20048;-76
2023/05/30 00:49:33;;;;;;;11.57;5.05;;;15.10;99.90;;;;;;4163069;28;20037;-72
2023/05/30 00:51:34;;;;;;;6.15;4.85;;;15.00;99.90;;;;;;4163315;28;20025;-76
2023/05/30 00:53:37;;;;;;;9.45;5.57;;;15.10;99.90;;;;;;4162519;28;20466;-73
2023/05/30 00:55:38;;;;;;;12.68;4.72;;;15.10;99.90;;;;;;4163998;28;20025;-76
2023/05/30 00:57:40;;;;;;;8.23;5.22;;;15.10;99.90;;;;;;4163289;28;20091;-74
2023/05/30 00:59:42;;;;;;;10.00;5.30;;;15.00;99.90;;;;;;4162359;28;20038;-76
2023/05/30 01:01:45;;;;;;;9.73;5.45;;;15.00;99.90;;;;;;4163671;28;20059;-67
2023/05/30 01:03:50;;;;;;;7.25;5.03;;;15.00;99.90;;;;;;4162809;28;20103;-77
2023/05/30 01:05:51;;;;;;;8.02;4.88;;;15.00;99.90;;;;;;4163661;28;20160;-61
2023/05/30 01:07:53;;;;;;;11.07;5.07;;;14.90;99.90;;;;;;4162723;28;20025;-68
2023/05/30 01:09:55;;;;;;;8.10;4.50;;;14.90;99.90;;;;;;4163835;28;20499;-61
2023/05/30 01:12:02;;;;;;;12.00;5.60;;;14.90;99.90;;;;;;4161477;28;20540;-77
2023/05/30 01:14:28;;;;;;;10.48;5.05;;;14.90;99.90;;;;;;4162991;28;20099;-76
2023/05/30 01:16:33;;;;;;;7.13;4.70;;;15.00;99.90;;;;;;4162496;28;20022;-74
2023/05/30 01:19:04;;;;;;;7.95;5.18;;;14.90;99.90;;;;;;4163860;28;20029;-73
2023/05/30 01:21:12;;;;;;;9.55;5.43;;;14.90;99.90;;;;;;4121078;28;20050;-61
2023/05/30 01:23:27;;;;;;;6.88;5.13;;;14.90;99.90;;;;;;4162693;28;20444;-62
2023/05/30 01:25:41;;;;;;;7.60;5.18;;;14.90;99.90;;;;;;4162753;28;20041;-71
2023/05/30 01:28:10;;;;;;;16.77;5.25;;;14.90;99.90;;;;;;4162559;28;20084;-76
2023/05/30 01:30:13;;;;;;;7.13;4.53;;;14.90;99.90;;;;;;4162853;28;20026;-73
2023/05/30 01:32:15;;;;;;;5.97;4.55;;;14.90;99.90;;;;;;4162924;28;20079;-62
2023/05/30 01:34:17;;;;;;;7.32;4.82;;;14.90;99.90;;;;;;4162166;28;20099;-71
2023/05/30 01:36:18;;;;;;;6.78;4.55;;;14.90;99.90;;;;;;4163033;28;20087;-61
2023/05/30 01:38:20;;;;;;;15.05;4.60;;;14.90;99.90;;;;;;4161770;28;20513;-72
2023/05/30 01:40:25;;;;;;;8.52;4.45;;;14.90;99.90;;;;;;4163009;28;20033;-75
2023/05/30 01:42:30;;;;;;;8.10;4.45;;;14.90;99.90;;;;;;4161964;28;20429;-70
2023/05/30 01:44:51;;;;;;;8.10;4.43;;;14.90;99.90;;;;;;4163230;28;20075;-73
2023/05/30 01:47:14;;;;;;;6.70;4.65;;;14.90;99.90;;;;;;4161989;28;20428;-76
2023/05/30 01:49:37;;;;;;;8.52;4.20;;;14.90;99.90;;;;;;4162022;28;20436;-73
2023/05/30 01:51:41;;;;;;;8.35;5.28;;;14.80;99.90;;;;;;4145084;28;20096;-70
2023/05/30 01:53:47;;;;;;;8.02;4.97;;;14.70;99.90;;;;;;4148219;28;20038;-61
2023/05/30 01:55:54;;;;;;;7.68;4.72;;;14.70;99.90;;;;;;4162490;28;20025;-61
2023/05/30 01:57:57;;;;;;;8.70;4.78;;;14.60;99.90;;;;;;4161824;28;20541;-73
2023/05/30 01:59:59;;;;;;;7.57;4.47;;;14.60;99.90;;;;;;4161915;28;20029;-75
2023/05/30 02:02:02;;;;;;;6.50;4.25;;;14.50;99.90;;;;;;4162113;28;20130;-70
2023/05/30 02:04:03;;;;;;;7.05;4.25;;;14.50;99.90;;;;;;4161804;28;20029;-69
2023/05/30 02:06:05;;;;;;;6.32;4.25;;;14.50;99.90;;;;;;4162805;28;20025;-66
2023/05/30 02:08:06;;;;;;;6.53;4.07;;;14.50;99.90;;;;;;4161871;28;20025;-61
2023/05/30 02:10:08;;;;;;;6.05;4.28;;;14.40;99.90;;;;;;4161883;28;20087;-76
2023/05/30 02:12:09;;;;;;;6.95;3.88;;;14.40;99.90;;;;;;4161250;28;20041;-78
2023/05/30 02:14:10;;;;;;;7.38;4.25;;;14.40;99.90;;;;;;4161994;28;20091;-73
2023/05/30 02:16:12;;;;;;;5.85;4.13;;;14.40;99.90;;;;;;4161698;28;20367;-61
2023/05/30 02:18:13;;;;;;;9.73;4.53;;;14.30;99.90;;;;;;4162533;28;20033;-73
2023/05/30 02:20:14;;;;;;;6.97;4.70;;;14.40;99.90;;;;;;4161580;28;20567;-77
2023/05/30 02:22:17;;;;;;;13.23;4.40;;;14.30;99.90;;;;;;4161852;28;20049;-61
2023/05/30 02:24:18;;;;;;;8.35;4.65;;;14.30;99.90;;;;;;4161160;28;20450;-59
2023/05/30 02:26:19;;;;;;;6.85;5.25;;;14.30;99.90;;;;;;4162288;28;20018;-63
2023/05/30 02:28:20;;;;;;;9.88;5.60;;;14.20;99.90;;;;;;4161913;28;20030;-61
2023/05/30 02:30:21;;;;;;;7.40;5.03;;;14.10;99.90;;;;;;4160732;28;20073;-60
2023/05/30 02:32:22;;;;;;;6.95;4.80;;;14.00;99.90;;;;;;4161693;28;20083;-66
2023/05/30 02:34:23;;;;;;;6.45;5.25;;;14.00;99.90;;;;;;4160535;28;20096;-61
2023/05/30 02:36:25;;;;;;;9.50;6.53;;;14.00;99.90;;;;;;4162185;28;20029;-60
2023/05/30 02:38:26;;;;;;;7.90;5.43;;;14.00;99.90;;;;;;4160997;28;20030;-74
2023/05/30 02:40:27;;;;;;;8.77;4.53;;;13.90;99.90;;;;;;4162049;28;20033;-63
2023/05/30 02:42:30;;;;;;;9.53;5.53;;;13.90;99.90;;;;;;4161129;28;20029;-61
2023/05/30 02:44:31;;;;;;;8.50;5.10;;;13.90;99.90;;;;;;4161851;28;20037;-73
2023/05/30 02:46:33;;;;;;;9.80;5.37;;;13.80;99.90;;;;;;4161203;28;20535;-73
2023/05/30 02:48:34;;;;;;;11.53;5.40;;;13.80;99.90;;;;;;4161731;28;20171;-70
2023/05/30 02:50:35;;;;;;;6.87;4.90;;;13.90;99.90;;;;;;4160877;28;20099;-73
2023/05/30 02:52:37;;;;;;;10.53;5.20;;;13.90;99.90;;;;;;4161807;28;20424;-75
2023/05/30 02:54:38;;;;;;;9.23;5.10;;;13.90;99.90;;;;;;4161090;28;20033;-77
2023/05/30 02:56:39;;;;;;;7.97;4.57;;;14.00;99.90;;;;;;4161700;28;20100;-61
2023/05/30 02:58:41;;;;;;;10.87;5.13;;;14.00;99.90;;;;;;4161603;28;20088;-72
2023/05/30 03:00:42;;;;;;;8.03;5.07;;;14.10;99.90;;;;;;4160979;28;20097;-76
2023/05/30 03:02:43;;;;;;;10.83;5.10;;;14.20;99.90;;;;;;4161788;28;20087;-76
2023/05/30 03:04:45;;;;;;;9.93;5.67;;;14.30;99.90;;;;;;4160909;28;20055;-76
2023/05/30 03:06:49;;;;;;;9.13;5.43;;;14.50;99.90;;;;;;4161941;28;20031;-75
2023/05/30 03:08:59;;;;;;;7.17;5.13;;;14.70;99.90;;;;;;4160334;28;20080;-72
2023/05/30 03:11:00;;;;;;;9.18;4.97;;;14.80;99.90;;;;;;4161490;28;20083;-71
2023/05/30 03:13:01;;;;;;;11.05;7.90;;;15.10;99.90;;;;;;4160691;28;20030;-67
2023/05/30 03:15:05;;;;;;;10.38;5.85;;;15.20;99.90;;;;;;4161868;28;20472;-61
2023/05/30 03:17:06;;;;;;;9.45;5.13;;;15.50;99.90;;;;;;4159683;28;20111;-74
2023/05/30 03:19:08;;;;;;;12.18;5.20;;;15.70;99.90;;;;;;4161155;28;20033;-77
2023/05/30 03:21:10;;;;;;;10.48;5.50;;;16.00;99.90;;;;;;4159635;28;20106;-76
2023/05/30 03:23:11;;;;;;;8.35;4.80;;;16.10;99.90;;;;;;4161212;28;20115;-76
2023/05/30 03:25:12;;;;;;;8.70;5.22;;;16.10;99.90;;;;;;4160102;28;20033;-78
2023/05/30 03:27:13;;;;;;;9.80;5.28;;;16.40;99.90;;;;;;4160906;28;20112;-78
2023/05/30 03:29:15;;;;;;;12.68;5.25;;;16.70;99.90;;;;;;4160898;28;20037;-73
2023/05/30 03:31:16;;;;;;;10.60;4.63;;;17.00;99.90;;;;;;4160309;28;20041;-77
2023/05/30 03:33:17;;;;;;;5.78;4.07;;;17.10;99.90;;;;;;4160996;28;20025;-69
2023/05/30 03:35:18;;;;;;;10.80;4.72;;;17.30;99.90;;;;;;4160498;28;20045;-76
2023/05/30 03:37:20;;;;;;;6.75;4.30;;;17.60;99.90;;;;;;4161244;28;20487;-76
2023/05/30 03:39:21;;;;;;;10.57;4.63;;;17.70;99.90;;;;;;4160450;28;20029;-77
2023/05/30 03:41:23;;;;;;;7.32;3.75;;;18.10;99.90;;;;;;4161352;28;20520;-73
2023/05/30 03:43:24;;;;;;;5.53;4.05;;;18.30;99.90;;;;;;4162047;28;20013;-73
2023/05/30 03:45:25;;;;;;;6.47;4.03;;;18.60;99.90;;;;;;4165030;28;20148;-74
2023/05/30 03:47:26;;;;;;;4.75;3.80;;;19.00;99.90;;;;;;4163829;28;20059;-72
2023/05/30 03:49:27;;;;;;;5.55;3.47;;;19.40;99.90;;;;;;4164809;28;20099;-74
2023/05/30 03:51:28;;;;;;;7.03;3.67;;;19.70;99.90;;;;;;4163369;28;20420;-71
2023/05/30 03:53:30;;;;;;;6.70;3.60;;;20.00;99.90;;;;;;4164372;28;20436;-75
2023/05/30 03:55:31;;;;;;;9.50;3.38;;;20.30;99.90;;;;;;4163451;28;20092;-75
2023/05/30 03:57:32;;;;;;;7.43;3.75;;;20.60;99.90;;;;;;4164558;28;20033;-65
2023/05/30 03:59:33;;;;;;;4.25;3.30;;;20.80;99.90;;;;;;4163611;28;20034;-72
2023/05/30 04:01:34;;;;;;;5.25;3.70;;;21.10;99.90;;;;;;4164268;28;20021;-74
2023/05/30 04:03:37;;;;;;;10.77;3.63;;;21.30;99.90;;;;;;4163006;28;20038;-77
2023/05/30 04:05:38;;;;;;;6.15;4.00;;;21.60;99.90;;;;;;4163682;28;20103;-77
2023/05/30 04:07:39;;;;;;;4.80;4.03;;;21.70;99.90;;;;;;4163594;28;20088;-73
2023/05/30 04:09:40;;;;;;;6.28;3.45;;;21.90;99.90;;;;;;4162319;28;20053;-73
2023/05/30 04:11:41;;;;;;;5.45;3.85;;;22.20;99.90;;;;;;4162805;28;20080;-75
2023/05/30 04:13:43;;;;;;;5.70;3.15;;;22.40;99.90;;;;;;4162583;28;20025;-71
2023/05/30 04:15:44;;;;;;;8.90;3.40;;;22.60;99.90;;;;;;4164091;28;20037;-72
2023/05/30 04:17:45;;;;;;;6.35;3.30;;;22.80;99.90;;;;;;4163234;28;20433;-75
2023/05/30 04:19:47;;;;;;;8.32;3.22;;;23.10;99.90;;;;;;4163561;28;20816;-75
2023/05/30 04:21:48;;;;;;;4.63;3.25;;;23.30;99.90;;;;;;4162248;28;20128;-74
2023/05/30 04:23:49;;;;;;;5.32;3.22;;;23.40;99.90;;;;;;4164463;28;20418;-74
2023/05/30 04:25:50;;;;;;;5.72;3.33;;;23.50;99.90;;;;;;4162813;28;20034;-74
2023/05/30 04:27:51;;;;;;;5.78;3.78;;;23.70;99.90;;;;;;4164221;28;20079;-73
2023/05/30 04:29:53;;;;;;;5.38;3.33;;;24.00;99.90;;;;;;4163405;28;20432;-72
2023/05/30 04:31:54;;;;;;;7.40;3.53;;;24.30;99.90;;;;;;4163139;28;20433;-68
2023/05/30 04:33:55;;;;;;;7.78;3.60;;;24.00;99.90;;;;;;4163578;28;20025;-79
2023/05/30 04:35:57;;;;;;;6.65;3.67;;;23.90;99.90;;;;;;4162413;28;20146;-78
2023/05/30 04:37:59;;;;;;;7.45;3.67;;;23.90;99.90;;;;;;4162833;28;20092;-74
2023/05/30 04:40:01;;;;;;;8.45;3.67;;;23.90;99.90;;;;;;4152179;28;20088;-76
2023/05/30 04:42:04;;;;;;;5.63;3.63;;;23.90;99.90;;;;;;4147302;28;20100;-74
2023/05/30 04:44:06;;;;;;;10.70;4.28;;;24.20;99.80;;;;;;4145987;28;20050;-77
2023/05/30 04:46:07;;;;;;;7.40;5.00;;;24.30;99.40;;;;;;4146577;28;20485;-76
2023/05/30 04:48:09;;;;;;;4.38;3.80;;;23.90;99.30;;;;;;4157292;28;20042;-70
2023/05/30 04:50:10;;;;;;;8.85;4.60;;;24.30;99.40;;;;;;4162928;28;20037;-77
2023/05/30 04:52:11;;;;;;;6.65;4.25;;;24.70;98.90;;;;;;4161177;28;20037;-74
2023/05/30 04:54:13;;;;;;;9.18;4.75;;;24.10;98.70;;;;;;4162436;28;20045;-76
2023/05/30 04:56:15;;;;;;;10.70;5.30;;;23.90;99.40;;;;;;4162427;28;20042;-77
2023/05/30 04:58:17;;;;;;;9.63;4.88;;;24.30;99.20;;;;;;4164093;28;20033;-77
2023/05/30 05:00:20;;;;;;;6.63;4.70;;;24.60;98.70;;;;;;4161546;28;20041;-67
2023/05/30 05:02:22;;;;;;;6.45;4.93;;;24.60;98.40;;;;;;4162976;28;20029;-74
2023/05/30 05:04:23;;;;;;;8.13;3.95;;;24.70;98.20;;;;;;4162143;28;20095;-65
2023/05/30 05:06:24;;;;;;;6.30;3.80;;;24.80;97.90;;;;;;4162825;28;20497;-74
2023/05/30 05:08:26;;;;;;;5.97;3.45;;;25.00;97.70;;;;;;4144943;28;20041;-74
2023/05/30 05:10:27;;;;;;;5.22;4.00;;;25.10;97.30;;;;;;4162497;28;20018;-74
2023/05/30 05:12:28;;;;;;;6.05;3.30;;;25.40;97.00;;;;;;4162698;28;20096;-76
2023/05/30 05:14:29;;;;;;;7.35;3.08;;;25.50;96.60;;;;;;4159959;28;20737;-69
2023/05/30 05:16:30;;;;;;;8.10;3.42;;;25.70;96.10;;;;;;4162227;28;20091;-77
2023/05/30 05:18:32;;;;;;;6.22;3.88;;;25.80;95.60;;;;;;4160662;28;20029;-76
2023/05/30 05:20:33;;;;;;;5.93;3.95;;;25.90;95.20;;;;;;4162601;28;20025;-67
2023/05/30 05:22:35;;;;;;;3.83;2.85;;;26.00;94.90;;;;;;4160788;28;20049;-75
2023/05/30 05:24:36;;;;;;;4.32;3.13;;;26.10;94.60;;;;;;4162303;28;20445;-75
2023/05/30 05:26:37;;;;;;;4.90;3.40;;;26.50;94.20;;;;;;4161855;28;20043;-75
2023/05/30 05:28:38;;;;;;;5.72;3.05;;;26.60;93.70;;;;;;4163287;28;20052;-63
2023/05/30 05:30:40;;;;;;;5.32;3.25;;;27.20;93.20;;;;;;4161717;28;20356;-62
2023/05/30 05:32:41;;;;;;;8.95;4.00;;;27.90;92.50;;;;;;4162588;28;20041;-64
2023/05/30 05:34:42;;;;;;;5.88;3.83;;;27.90;91.90;;;;;;4161384;28;20057;-61
2023/05/30 05:36:43;;;;;;;9.85;4.47;;;27.80;91.50;;;;;;4161662;28;20115;-61
2023/05/30 05:38:45;;;;;;;8.63;4.13;;;27.20;91.70;;;;;;4162490;28;20022;-61
2023/05/30 05:40:46;;;;;;;14.13;4.95;;;26.80;91.90;;;;;;4162350;28;20162;-75
2023/05/30 05:42:47;;;;;;;10.80;4.43;;;26.20;92.00;;;;;;4161917;28;20041;-61
2023/05/30 05:44:48;;;;;;;17.02;5.10;;;25.70;92.60;;;;;;4161651;28;20060;-64
2023/05/30 05:46:49;;;;;;;12.18;4.93;;;25.60;92.90;;;;;;4162657;28;20033;-61
2023/05/30 05:48:51;;;;;;;5.85;4.32;;;25.00;93.30;;;;;;4160454;28;20076;-60
2023/05/30 05:50:52;;;;;;;9.60;4.28;;;24.90;93.60;;;;;;4162656;28;20029;-61
2023/05/30 05:52:53;;;;;;;9.95;5.15;;;25.00;93.70;;;;;;4161567;28;20536;-62
2023/05/30 05:54:54;;;;;;;9.23;4.32;;;24.50;94.00;;;;;;4162059;28;20099;-62
2023/05/30 05:56:55;;;;;;;7.95;5.15;;;24.40;94.30;;;;;;4161705;28;20140;-65
2023/05/30 05:58:56;;;;;;;9.90;4.80;;;24.10;94.60;;;;;;4162901;28;20041;-61
2023/05/30 06:00:57;;;;;;;10.63;5.93;;;23.50;95.40;;;;;;4161447;28;20021;-61
2023/05/30 06:02:59;;;;;;;13.70;5.00;;;23.40;95.90;;;;;;4162283;28;20481;-63
2023/05/30 06:05:00;;;;;;;11.35;4.93;;;23.30;96.10;;;;;;4161007;28;20033;-63
2023/05/30 06:07:01;;;;;;;16.67;5.43;;;23.40;96.10;;;;;;4160753;28;20075;-68
2023/05/30 06:09:02;;;;;;;16.95;5.88;;;23.60;96.00;;;;;;4161867;28;20045;-69
2023/05/30 06:11:03;;;;;;;15.43;5.78;;;23.50;96.00;;;;;;4160299;28;20376;-69
2023/05/30 06:13:05;;;;;;;11.65;5.13;;;23.40;96.30;;;;;;4161891;28;20025;-67
2023/05/30 06:15:06;;;;;;;10.02;4.47;;;23.40;96.20;;;;;;4160680;28;20061;-64
2023/05/30 06:17:08;;;;;;;10.85;5.47;;;23.60;96.30;;;;;;4161385;28;20079;-62
2023/05/30 06:19:09;;;;;;;14.95;5.28;;;23.50;96.10;;;;;;4143705;28;20026;-63
2023/05/30 06:21:11;;;;;;;18.35;5.90;;;23.50;96.00;;;;;;4160958;28;20437;-61
2023/05/30 06:23:12;;;;;;;10.80;5.80;;;23.60;96.20;;;;;;4160588;28;20111;-72
2023/05/30 06:25:14;;;;;;;18.25;6.47;;;23.60;96.20;;;;;;4162344;28;20037;-61
2023/05/30 06:27:15;;;;;;;10.18;5.43;;;23.60;96.30;;;;;;4156625;28;21337;-64
2023/05/30 06:29:17;;;;;;;15.63;5.88;;;23.80;96.20;;;;;;4157108;28;20026;-64
2023/05/30 06:31:18;;;;;;;13.90;5.63;;;24.00;96.10;;;;;;4156589;28;20053;-64
2023/05/30 06:33:20;;;;;;;14.80;6.07;;;24.50;95.90;;;;;;4161091;28;20099;-73
2023/05/30 06:35:21;;;;;;;13.70;5.97;;;24.30;95.90;;;;;;4160198;28;20045;-70
2023/05/30 06:37:22;;;;;;;8.73;5.32;;;23.80;96.20;;;;;;4161659;28;20030;-74
2023/05/30 06:39:24;;;;;;;10.48;5.65;;;23.30;96.80;;;;;;4161350;28;20029;-64
2023/05/30 06:41:26;;;;;;;11.02;4.90;;;23.30;97.20;;;;;;4160603;28;20033;-67
2023/05/30 06:43:27;;;;;;;8.15;5.38;;;23.40;97.30;;;;;;4161330;28;20087;-68
2023/05/30 06:45:28;;;;;;;17.08;5.30;;;23.30;97.20;;;;;;4151537;28;20421;-65
2023/05/30 06:47:29;;;;;;;12.20;5.18;;;23.10;97.60;;;;;;4154126;28;20029;-69
2023/05/30 06:49:30;;;;;;;15.75;6.07;;;23.00;97.80;;;;;;4161169;28;20474;-73
2023/05/30 06:51:32;;;;;;;15.68;5.28;;;23.50;97.70;;;;;;4162156;28;20025;-69
2023/05/30 06:53:34;;;;;;;13.75;5.80;;;23.80;97.40;;;;;;4160613;28;20034;-71
2023/05/30 06:55:35;;;;;;;16.67;4.95;;;24.10;97.10;;;;;;4161612;28;20041;-66
2023/05/30 06:57:37;;;;;;;7.75;4.30;;;24.30;97.00;;;;;;4159995;28;20394;-70
2023/05/30 06:59:38;;;;;;;12.00;4.35;;;24.20;97.00;;;;;;4161878;28;20026;-74
2023/05/30 07:01:39;;;;;;;11.48;4.00;;;24.10;96.40;;;;;;4159928;28;20087;-70
2023/05/30 07:03:40;;;;;;;6.85;4.13;;;24.60;96.50;;;;;;4160674;28;20033;-66
2023/05/30 07:05:41;;;;;;;10.18;4.30;;;24.90;95.90;;;;;;4160502;28;20029;-70
2023/05/30 07:07:43;;;;;;;12.43;4.30;;;25.30;95.50;;;;;;4161449;28;20087;-77
2023/05/30 07:09:44;;;;;;;10.75;3.92;;;25.60;95.40;;;;;;4159819;28;20544;-71
2023/05/30 07:11:45;;;;;;;7.72;3.97;;;26.00;94.90;;;;;;4160159;28;20033;-66
2023/05/30 07:13:46;;;;;;;9.52;3.58;;;26.20;94.50;;;;;;4160599;28;20096;-64
2023/05/30 07:15:47;;;;;;;8.77;4.53;;;25.90;94.50;;;;;;4160505;28;20480;-67
2023/05/30 07:17:48;;;;;;;14.38;4.25;;;25.50;94.50;;;;;;4161421;28;20603;-65
2023/05/30 07:19:50;;;;;;;12.30;4.38;;;25.00;94.60;;;;;;4160262;28;20587;-68
2023/05/30 07:21:51;;;;;;;9.23;4.40;;;24.90;94.90;;;;;;4161526;28;20045;-70
2023/05/30 07:23:52;;;;;;;8.30;4.82;;;24.90;94.90;;;;;;4160564;28;20021;-65
2023/05/30 07:25:53;;;;;;;11.82;5.65;;;24.70;95.10;;;;;;4161494;28;20033;-68
2023/05/30 07:27:55;;;;;;;7.85;4.75;;;24.30;95.70;;;;;;4160160;28;20064;-69
2023/05/30 07:29:56;;;;;;;13.00;5.72;;;24.30;96.00;;;;;;4161707;28;20026;-62
2023/05/30 07:31:58;;;;;;;11.25;5.28;;;23.90;96.50;;;;;;4159878;28;20084;-72
2023/05/30 07:33:59;;;;;;;14.15;5.18;;;23.90;96.80;;;;;;4161063;28;20129;-74
2023/05/30 07:36:00;;;;;;;16.55;5.75;;;23.90;96.80;;;;;;4159599;28;20045;-65
2023/05/30 07:38:01;;;;;;;13.48;7.65;;;23.90;96.90;;;;;;4160932;28;20037;-64
2023/05/30 07:40:07;;;;;;;17.55;6.15;;;23.70;97.50;;;;;;4160339;28;20026;-68
2023/05/30 07:42:08;;;;;;;11.15;5.55;;;23.60;97.40;;;;;;4160276;28;20095;-61
2023/05/30 07:44:09;;;;;;;11.55;5.78;;;23.60;97.50;;;;;;4161219;28;20079;-73
2023/05/30 07:46:10;;;;;;;9.77;5.15;;;23.50;97.40;;;;;;4159768;28;20034;-66
2023/05/30 07:48:11;;;;;;;9.63;4.80;;;23.50;97.40;;;;;;4160839;28;20030;-65
2023/05/30 07:50:13;;;;;;;9.05;5.75;;;23.60;97.20;;;;;;4159201;28;20096;-64
2023/05/30 07:52:15;;;;;;;12.80;6.63;;;23.90;97.20;;;;;;4161023;28;20047;-61
2023/05/30 07:54:16;;;;;;;9.77;4.47;;;24.40;96.90;;;;;;4159748;28;20363;-70
2023/05/30 07:56:17;;;;;;;8.68;4.25;;;24.50;96.40;;;;;;4160475;28;20049;-66
2023/05/30 07:58:18;;;;;;;10.45;3.72;;;24.50;95.80;;;;;;4159760;28;20548;-66
2023/05/30 08:00:19;;;;;;;5.93;3.80;;;24.70;95.70;;;;;;4161346;28;20026;-65
2023/05/30 08:02:24;;;;;;;10.00;4.22;;;25.00;95.50;;;;;;4160158;28;20037;-60
2023/05/30 08:04:25;;;;;;;13.02;4.93;;;25.00;94.90;;;;;;4160122;28;20116;-63
2023/05/30 08:06:26;;;;;;;13.10;5.28;;;24.80;95.00;;;;;;4159519;28;20037;-67
2023/05/30 08:08:27;;;;;;;10.52;4.78;;;24.60;95.20;;;;;;4161183;28;20103;-65
2023/05/30 08:10:28;;;;;;;13.45;4.40;;;24.50;95.30;;;;;;4159805;28;20076;-65
2023/05/30 08:12:29;;;;;;;11.85;5.60;;;24.60;95.30;;;;;;4160880;28;20026;-64
2023/05/30 08:14:31;;;;;;;10.45;4.85;;;24.60;95.20;;;;;;4159936;28;20111;-63
2023/05/30 08:16:33;;;;;;;5.70;3.90;;;24.60;95.40;;;;;;4159626;28;20105;-61
2023/05/30 08:18:34;;;;;;;5.82;4.30;;;24.50;95.10;;;;;;4159986;28;20485;-65
2023/05/30 08:20:38;;;;;;;6.47;3.72;;;24.50;94.70;;;;;;4159271;28;20107;-67
2023/05/30 08:22:39;;;;;;;7.38;4.10;;;24.50;94.80;;;;;;4160623;28;20053;-67
2023/05/30 08:24:41;;;;;;;10.88;4.97;;;25.00;94.80;;;;;;4159120;28;20099;-64
2023/05/30 08:26:42;;;;;;;6.07;4.10;;;24.80;94.70;;;;;;4160485;28;20453;-61
2023/05/30 08:28:44;;;;;;;9.40;4.43;;;24.70;94.80;;;;;;4158836;28;20147;-62
2023/05/30 08:30:51;;;;;;;5.35;4.03;;;24.50;94.90;;;;;;4159777;28;20022;-66
2023/05/30 08:32:53;;;;;;;6.75;3.88;;;24.20;95.10;;;;;;4163563;28;20025;-62
2023/05/30 08:34:54;;;;;;;6.57;4.15;;;24.30;95.10;;;;;;4163253;28;20050;-64
2023/05/30 08:36:55;;;;;;;9.52;5.07;;;24.50;95.00;;;;;;4162256;28;20033;-67
2023/05/30 08:38:56;;;;;;;8.07;4.20;;;24.50;94.60;;;;;;4158337;28;20041;-65
2023/05/30 08:40:57;;;;;;;11.40;5.38;;;24.40;94.50;;;;;;4162090;28;20063;-59
2023/05/30 08:42:58;;;;;;;9.00;4.28;;;24.40;94.70;;;;;;4163052;28;20095;-60
2023/05/30 08:44:59;;;;;;;15.27;4.47;;;24.50;94.80;;;;;;4163467;28;20030;-68
2023/05/30 08:47:01;;;;;;;8.40;4.35;;;24.60;94.60;;;;;;4163285;28;20080;-66
2023/05/30 08:49:03;;;;;;;5.72;4.30;;;24.50;94.60;;;;;;4163301;28;20095;-64
2023/05/30 08:51:05;;;;;;;9.00;4.03;;;24.30;94.90;;;;;;4161417;28;20127;-70
2023/05/30 08:53:08;;;;;;;8.43;4.35;;;24.10;95.10;;;;;;4163688;28;20038;-71
2023/05/30 08:55:16;;;;;;;5.05;3.67;;;24.20;95.30;;;;;;4161866;28;20068;-61
2023/05/30 08:57:31;;;;;;;7.40;4.85;;;24.10;95.40;;;;;;4163347;28;20733;-63
2023/05/30 08:59:32;;;;;;;8.23;4.93;;;23.90;95.60;;;;;;4162508;28;20100;-63
2023/05/30 09:01:34;;;;;;;8.43;4.15;;;23.90;95.80;;;;;;4163602;28;20497;-67
2023/05/30 09:03:37;;;;;;;9.77;3.75;;;24.00;95.50;;;;;;4162277;28;20033;-64
2023/05/30 09:05:40;;;;;;;8.60;4.32;;;24.20;95.20;;;;;;4162454;28;20076;-68
2023/05/30 09:07:44;;;;;;;7.05;3.95;;;24.00;95.10;;;;;;4161886;28;20099;-61
2023/05/30 09:09:46;;;;;;;4.65;3.75;;;23.80;95.20;;;;;;4163673;28;20037;-60
2023/05/30 09:11:47;;;;;;;6.70;3.67;;;23.60;95.10;;;;;;4144593;28;20080;-63
2023/05/30 09:13:49;;;;;;;10.70;4.72;;;23.60;95.10;;;;;;4162797;28;20030;-62
2023/05/30 09:15:50;;;;;;;8.88;4.38;;;23.50;95.10;;;;;;4162268;28;20049;-61
2023/05/30 09:17:51;;;;;;;7.10;4.28;;;23.60;95.40;;;;;;4163172;28;20029;-61
2023/05/30 09:19:53;;;;;;;7.38;3.42;;;23.70;95.20;;;;;;4162348;28;20444;-60
2023/05/30 09:21:56;;;;;;;5.95;3.95;;;23.80;95.10;;;;;;4162515;28;20034;-60
2023/05/30 09:24:03;;;;;;;4.15;3.60;;;24.00;94.90;;;;;;4161194;28;20096;-62
2023/05/30 09:26:07;;;;;;;6.30;4.78;;;24.20;94.70;;;;;;4161554;28;20045;-64
2023/05/30 09:28:09;;;;;;;12.70;5.10;;;24.30;94.70;;;;;;4161861;28;20018;-64
2023/05/30 09:30:11;;;;;;;8.27;4.18;;;24.10;94.90;;;;;;4162673;28;20033;-60
2023/05/30 09:32:13;;;;;;;9.05;5.25;;;23.90;94.80;;;;;;4159645;28;20041;-60
2023/05/30 09:34:20;;;;;;;10.50;6.20;;;23.80;94.80;;;;;;4153094;28;20410;-61
2023/05/30 09:36:24;;;;;;;10.90;5.25;;;23.90;94.80;;;;;;4161103;28;20050;-73
2023/05/30 09:38:25;;;;;;;7.97;4.18;;;23.80;94.80;;;;;;4144915;28;20042;-63
2023/05/30 09:40:27;;;;;;;11.10;5.55;;;23.80;94.90;;;;;;4146325;28;20034;-63
2023/05/30 09:42:41;;;;;;;5.50;3.95;;;23.90;95.00;;;;;;4145026;28;20398;-61
2023/05/30 09:44:52;;;;;;;7.28;3.88;;;24.00;94.70;;;;;;4144733;28;20151;-67
2023/05/30 09:46:57;;;;;;;6.75;3.58;;;24.20;94.30;;;;;;4143555;28;20029;-60
2023/05/30 09:48:58;;;;;;;7.72;3.88;;;24.30;94.20;;;;;;4146084;28;20063;-63
2023/05/30 09:51:01;;;;;;;7.03;4.22;;;24.40;94.00;;;;;;4144571;28;20398;-60
2023/05/30 09:53:03;;;;;;;6.65;4.43;;;24.30;93.80;;;;;;4161854;28;20044;-59
2023/05/30 09:55:06;;;;;;;10.60;5.05;;;24.50;93.90;;;;;;4161518;28;20025;-62
2023/05/30 09:57:07;;;;;;;8.57;4.35;;;24.30;93.90;;;;;;4162654;28;20379;-58
2023/05/30 09:59:13;;;;;;;10.20;4.70;;;24.20;94.20;;;;;;4160816;28;20025;-61
2023/05/30 10:01:17;;;;;;;7.03;4.32;;;24.00;94.30;;;;;;4134026;28;20160;-67
2023/05/30 10:03:39;;;;;;;6.30;4.47;;;23.90;94.30;;;;;;4156132;28;20425;-63
2023/05/30 10:05:40;;;;;;;7.57;3.92;;;23.80;94.40;;;;;;4161036;28;20115;-62
2023/05/30 10:07:42;;;;;;;7.90;4.10;;;23.80;94.50;;;;;;4160340;28;20099;-64
2023/05/30 10:09:44;;;;;;;4.03;3.60;;;23.80;94.40;;;;;;4162106;28;20076;-68
2023/05/30 10:11:45;;;;;;;6.75;3.65;;;23.90;94.50;;;;;;4160084;28;20033;-61
2023/05/30 10:13:48;;;;;;;4.65;3.72;;;23.80;94.50;;;;;;4161475;28;20103;-61
2023/05/30 10:15:49;;;;;;;7.80;3.67;;;23.90;94.40;;;;;;4160053;28;20049;-64
2023/05/30 10:18:05;;;;;;;8.43;4.00;;;23.70;94.50;;;;;;4160850;28;20086;-64
2023/05/30 10:20:09;;;;;;;6.63;4.43;;;23.50;94.80;;;;;;4160287;28;20037;-60
2023/05/30 10:22:12;;;;;;;7.60;3.80;;;23.40;95.10;;;;;;4160787;28;20993;-61
2023/05/30 10:24:15;;;;;;;7.85;3.80;;;23.40;95.10;;;;;;4162085;28;20106;-61
2023/05/30 10:26:18;;;;;;;4.90;4.07;;;23.30;95.20;;;;;;4160298;28;20041;-63
2023/05/30 10:28:26;;;;;;;7.30;3.95;;;23.30;95.20;;;;;;4160853;28;20041;-61
2023/05/30 10:30:29;;;;;;;6.13;4.20;;;23.40;95.20;;;;;;4146863;28;20107;-71
2023/05/30 10:32:38;;;;;;;5.53;3.42;;;23.60;95.20;;;;;;4161140;28;20075;-66
2023/05/30 10:34:47;;;;;;;4.90;3.65;;;23.90;95.00;;;;;;4161183;28;20033;-65